sensor_id;sensor_type;location;lat;lon;timestamp;P1;durP1;ratioP1;P2;durP2;ratioP2
34060;SDS011;20336;-33.424;-70.638;2023-04-15T00:00:48;16.77;;;7.13;;
34060;SDS011;20336;-33.424;-70.638;2023-04-15T00:03:16;14.27;;;6.35;;
34060;SDS011;20336;-33.424;-70.638;2023-04-15T00:05:43;12.73;;;5.63;;
34060;SDS011;20336;-33.424;-70.638;2023-04-15T00:08:10;18.15;;;6.30;;
34060;SDS011;20336;-33.424;-70.638;2023-04-15T00:10:38;15.07;;;5.85;;
34060;SDS011;20336;-33.424;-70.638;2023-04-15T00:13:05;13.55;;;5.60;;
34060;SDS011;20336;-33.424;-70.638;2023-04-15T00:15:31;10.95;;;5.88;;
34060;SDS011;20336;-33.424;-70.638;2023-04-15T00:17:58;19.15;;;6.28;;
34060;SDS011;20336;-33.424;-70.638;2023-04-15T00:20:25;16.52;;;5.30;;
34060;SDS011;20336;-33.424;-70.638;2023-04-15T00:22:52;24.27;;;11.20;;
34060;SDS011;20336;-33.424;-70.638;2023-04-15T00:25:19;10.65;;;5.90;;
34060;SDS011;20336;-33.424;-70.638;2023-04-15T00:27:46;15.90;;;6.45;;
34060;SDS011;20336;-33.424;-70.638;2023-04-15T00:30:13;17.92;;;9.90;;
34060;SDS011;20336;-33.424;-70.638;2023-04-15T00:32:41;13.73;;;6.30;;
34060;SDS011;20336;-33.424;-70.638;2023-04-15T00:35:09;10.95;;;6.07;;
34060;SDS011;20336;-33.424;-70.638;2023-04-15T00:37:35;15.63;;;5.60;;
34060;SDS011;20336;-33.424;-70.638;2023-04-15T00:40:02;36.22;;;19.95;;
34060;SDS011;20336;-33.424;-70.638;2023-04-15T00:42:29;19.75;;;11.55;;
34060;SDS011;20336;-33.424;-70.638;2023-04-15T00:44:56;15.40;;;8.80;;
34060;SDS011;20336;-33.424;-70.638;2023-04-15T00:47:23;21.07;;;8.70;;
34060;SDS011;20336;-33.424;-70.638;2023-04-15T00:49:50;16.60;;;7.20;;
34060;SDS011;20336;-33.424;-70.638;2023-04-15T00:52:17;13.57;;;7.28;;
34060;SDS011;20336;-33.424;-70.638;2023-04-15T00:54:44;12.27;;;6.33;;
34060;SDS011;20336;-33.424;-70.638;2023-04-15T00:57:11;13.80;;;5.70;;
34060;SDS011;20336;-33.424;-70.638;2023-04-15T00:59:38;14.73;;;5.97;;
34060;SDS011;20336;-33.424;-70.638;2023-04-15T01:02:05;13.80;;;6.13;;
34060;SDS011;20336;-33.424;-70.638;2023-04-15T01:04:32;9.80;;;5.37;;
34060;SDS011;20336;-33.424;-70.638;2023-04-15T01:06:59;15.77;;;6.13;;
34060;SDS011;20336;-33.424;-70.638;2023-04-15T01:09:27;15.33;;;6.50;;
34060;SDS011;20336;-33.424;-70.638;2023-04-15T01:11:53;16.90;;;6.43;;
34060;SDS011;20336;-33.424;-70.638;2023-04-15T01:14:21;9.97;;;6.10;;
34060;SDS011;20336;-33.424;-70.638;2023-04-15T01:16:48;13.63;;;5.80;;
34060;SDS011;20336;-33.424;-70.638;2023-04-15T01:19:15;10.23;;;5.80;;
34060;SDS011;20336;-33.424;-70.638;2023-04-15T01:21:42;118.80;;;16.60;;
34060;SDS011;20336;-33.424;-70.638;2023-04-15T01:24:09;68.03;;;14.20;;
34060;SDS011;20336;-33.424;-70.638;2023-04-15T01:26:37;32.77;;;7.67;;
34060;SDS011;20336;-33.424;-70.638;2023-04-15T01:29:04;58.43;;;9.73;;
34060;SDS011;20336;-33.424;-70.638;2023-04-15T01:31:31;21.37;;;7.77;;
34060;SDS011;20336;-33.424;-70.638;2023-04-15T01:33:58;20.80;;;8.10;;
34060;SDS011;20336;-33.424;-70.638;2023-04-15T01:36:26;14.93;;;7.00;;
34060;SDS011;20336;-33.424;-70.638;2023-04-15T01:39:01;14.10;;;6.60;;
34060;SDS011;20336;-33.424;-70.638;2023-04-15T01:41:28;14.40;;;7.57;;
34060;SDS011;20336;-33.424;-70.638;2023-04-15T01:43:56;9.90;;;6.53;;
34060;SDS011;20336;-33.424;-70.638;2023-04-15T01:46:23;12.37;;;6.97;;
34060;SDS011;20336;-33.424;-70.638;2023-04-15T01:48:50;14.80;;;7.20;;
34060;SDS011;20336;-33.424;-70.638;2023-04-15T01:51:17;11.87;;;7.27;;
34060;SDS011;20336;-33.424;-70.638;2023-04-15T01:53:44;14.23;;;7.73;;
34060;SDS011;20336;-33.424;-70.638;2023-04-15T01:56:11;17.40;;;7.40;;
34060;SDS011;20336;-33.424;-70.638;2023-04-15T01:58:37;15.10;;;7.33;;
34060;SDS011;20336;-33.424;-70.638;2023-04-15T02:01:04;12.13;;;7.40;;
34060;SDS011;20336;-33.424;-70.638;2023-04-15T02:03:31;15.87;;;7.60;;
34060;SDS011;20336;-33.424;-70.638;2023-04-15T02:05:58;12.50;;;6.33;;
34060;SDS011;20336;-33.424;-70.638;2023-04-15T02:08:25;14.37;;;7.30;;
34060;SDS011;20336;-33.424;-70.638;2023-04-15T02:10:53;12.57;;;7.13;;
34060;SDS011;20336;-33.424;-70.638;2023-04-15T02:13:19;11.37;;;6.77;;
34060;SDS011;20336;-33.424;-70.638;2023-04-15T02:15:47;13.03;;;7.30;;
34060;SDS011;20336;-33.424;-70.638;2023-04-15T02:18:14;20.57;;;12.53;;
34060;SDS011;20336;-33.424;-70.638;2023-04-15T02:20:41;15.73;;;8.57;;
34060;SDS011;20336;-33.424;-70.638;2023-04-15T02:23:08;17.27;;;8.50;;
34060;SDS011;20336;-33.424;-70.638;2023-04-15T02:25:36;15.90;;;7.83;;
34060;SDS011;20336;-33.424;-70.638;2023-04-15T02:28:06;16.70;;;8.60;;
34060;SDS011;20336;-33.424;-70.638;2023-04-15T02:30:33;15.80;;;8.37;;
34060;SDS011;20336;-33.424;-70.638;2023-04-15T02:33:00;17.80;;;8.23;;
34060;SDS011;20336;-33.424;-70.638;2023-04-15T02:35:26;16.10;;;9.37;;
34060;SDS011;20336;-33.424;-70.638;2023-04-15T02:37:53;19.27;;;8.60;;
34060;SDS011;20336;-33.424;-70.638;2023-04-15T02:40:20;15.33;;;8.60;;
34060;SDS011;20336;-33.424;-70.638;2023-04-15T02:42:47;15.83;;;8.00;;
34060;SDS011;20336;-33.424;-70.638;2023-04-15T02:45:14;16.40;;;7.80;;
34060;SDS011;20336;-33.424;-70.638;2023-04-15T02:47:43;15.60;;;8.10;;
34060;SDS011;20336;-33.424;-70.638;2023-04-15T02:50:11;21.27;;;8.97;;
34060;SDS011;20336;-33.424;-70.638;2023-04-15T02:52:39;14.60;;;7.80;;
34060;SDS011;20336;-33.424;-70.638;2023-04-15T02:55:07;14.57;;;7.93;;
34060;SDS011;20336;-33.424;-70.638;2023-04-15T02:57:34;11.10;;;7.23;;
34060;SDS011;20336;-33.424;-70.638;2023-04-15T03:00:03;13.87;;;8.30;;
34060;SDS011;20336;-33.424;-70.638;2023-04-15T03:02:34;18.90;;;8.60;;
34060;SDS011;20336;-33.424;-70.638;2023-04-15T03:05:01;12.67;;;7.90;;
34060;SDS011;20336;-33.424;-70.638;2023-04-15T03:07:28;19.67;;;8.97;;
34060;SDS011;20336;-33.424;-70.638;2023-04-15T03:09:55;16.57;;;8.17;;
34060;SDS011;20336;-33.424;-70.638;2023-04-15T03:12:22;20.63;;;9.10;;
34060;SDS011;20336;-33.424;-70.638;2023-04-15T03:14:49;17.87;;;8.37;;
34060;SDS011;20336;-33.424;-70.638;2023-04-15T03:17:16;14.70;;;8.00;;
34060;SDS011;20336;-33.424;-70.638;2023-04-15T03:19:43;13.97;;;8.03;;
34060;SDS011;20336;-33.424;-70.638;2023-04-15T03:22:10;13.20;;;7.80;;
34060;SDS011;20336;-33.424;-70.638;2023-04-15T03:24:36;18.63;;;8.77;;
34060;SDS011;20336;-33.424;-70.638;2023-04-15T03:27:03;14.67;;;7.87;;
34060;SDS011;20336;-33.424;-70.638;2023-04-15T03:29:32;13.50;;;8.63;;
34060;SDS011;20336;-33.424;-70.638;2023-04-15T03:31:59;13.87;;;8.67;;
34060;SDS011;20336;-33.424;-70.638;2023-04-15T03:34:26;17.17;;;8.27;;
34060;SDS011;20336;-33.424;-70.638;2023-04-15T03:36:53;17.17;;;8.60;;
34060;SDS011;20336;-33.424;-70.638;2023-04-15T03:39:20;18.23;;;8.77;;
34060;SDS011;20336;-33.424;-70.638;2023-04-15T03:41:47;11.17;;;7.93;;
34060;SDS011;20336;-33.424;-70.638;2023-04-15T03:44:14;15.20;;;8.63;;
34060;SDS011;20336;-33.424;-70.638;2023-04-15T03:46:41;16.93;;;8.07;;
34060;SDS011;20336;-33.424;-70.638;2023-04-15T03:49:08;13.87;;;8.03;;
34060;SDS011;20336;-33.424;-70.638;2023-04-15T03:51:35;11.20;;;7.80;;
34060;SDS011;20336;-33.424;-70.638;2023-04-15T03:54:02;13.80;;;7.30;;
34060;SDS011;20336;-33.424;-70.638;2023-04-15T03:56:29;14.63;;;8.30;;
34060;SDS011;20336;-33.424;-70.638;2023-04-15T03:58:56;14.40;;;8.00;;
34060;SDS011;20336;-33.424;-70.638;2023-04-15T04:01:22;16.90;;;8.33;;
34060;SDS011;20336;-33.424;-70.638;2023-04-15T04:03:49;15.93;;;8.33;;
34060;SDS011;20336;-33.424;-70.638;2023-04-15T04:06:16;14.43;;;8.53;;
34060;SDS011;20336;-33.424;-70.638;2023-04-15T04:08:43;13.37;;;8.33;;
34060;SDS011;20336;-33.424;-70.638;2023-04-15T04:11:10;14.23;;;7.97;;
34060;SDS011;20336;-33.424;-70.638;2023-04-15T04:13:37;17.70;;;9.17;;
34060;SDS011;20336;-33.424;-70.638;2023-04-15T04:16:04;15.10;;;7.93;;
34060;SDS011;20336;-33.424;-70.638;2023-04-15T04:18:31;16.10;;;8.37;;
34060;SDS011;20336;-33.424;-70.638;2023-04-15T04:20:58;13.63;;;8.63;;
34060;SDS011;20336;-33.424;-70.638;2023-04-15T04:23:25;13.77;;;8.90;;
34060;SDS011;20336;-33.424;-70.638;2023-04-15T04:25:52;15.73;;;8.93;;
34060;SDS011;20336;-33.424;-70.638;2023-04-15T04:28:19;15.27;;;8.60;;
34060;SDS011;20336;-33.424;-70.638;2023-04-15T04:30:48;15.50;;;8.47;;
34060;SDS011;20336;-33.424;-70.638;2023-04-15T04:33:16;17.53;;;9.67;;
34060;SDS011;20336;-33.424;-70.638;2023-04-15T04:35:42;21.40;;;9.53;;
34060;SDS011;20336;-33.424;-70.638;2023-04-15T04:38:09;16.27;;;8.53;;
34060;SDS011;20336;-33.424;-70.638;2023-04-15T04:40:36;13.07;;;8.90;;
34060;SDS011;20336;-33.424;-70.638;2023-04-15T04:43:03;16.47;;;8.20;;
34060;SDS011;20336;-33.424;-70.638;2023-04-15T04:45:30;12.60;;;8.47;;
34060;SDS011;20336;-33.424;-70.638;2023-04-15T04:47:57;16.63;;;9.07;;
34060;SDS011;20336;-33.424;-70.638;2023-04-15T04:50:24;17.77;;;8.63;;
34060;SDS011;20336;-33.424;-70.638;2023-04-15T04:52:51;14.77;;;8.30;;
34060;SDS011;20336;-33.424;-70.638;2023-04-15T04:55:18;17.13;;;9.03;;
34060;SDS011;20336;-33.424;-70.638;2023-04-15T04:57:45;13.57;;;9.10;;
34060;SDS011;20336;-33.424;-70.638;2023-04-15T05:00:12;19.70;;;9.77;;
34060;SDS011;20336;-33.424;-70.638;2023-04-15T05:02:39;15.00;;;9.57;;
34060;SDS011;20336;-33.424;-70.638;2023-04-15T05:05:08;15.97;;;8.87;;
34060;SDS011;20336;-33.424;-70.638;2023-04-15T05:07:36;16.23;;;8.77;;
34060;SDS011;20336;-33.424;-70.638;2023-04-15T05:10:04;18.03;;;10.17;;
34060;SDS011;20336;-33.424;-70.638;2023-04-15T05:12:31;14.97;;;9.80;;
34060;SDS011;20336;-33.424;-70.638;2023-04-15T05:14:58;17.43;;;9.50;;
34060;SDS011;20336;-33.424;-70.638;2023-04-15T05:17:24;15.17;;;9.03;;
34060;SDS011;20336;-33.424;-70.638;2023-04-15T05:19:51;15.17;;;9.50;;
34060;SDS011;20336;-33.424;-70.638;2023-04-15T05:22:18;17.37;;;9.20;;
34060;SDS011;20336;-33.424;-70.638;2023-04-15T05:24:45;14.43;;;9.67;;
34060;SDS011;20336;-33.424;-70.638;2023-04-15T05:27:12;15.77;;;9.90;;
34060;SDS011;20336;-33.424;-70.638;2023-04-15T05:29:39;17.03;;;9.00;;
34060;SDS011;20336;-33.424;-70.638;2023-04-15T05:32:06;15.33;;;9.73;;
34060;SDS011;20336;-33.424;-70.638;2023-04-15T05:34:33;15.67;;;9.43;;
34060;SDS011;20336;-33.424;-70.638;2023-04-15T05:37:00;17.97;;;9.73;;
34060;SDS011;20336;-33.424;-70.638;2023-04-15T05:39:27;17.57;;;10.40;;
34060;SDS011;20336;-33.424;-70.638;2023-04-15T05:41:55;19.57;;;10.20;;
34060;SDS011;20336;-33.424;-70.638;2023-04-15T05:44:22;16.33;;;10.47;;
34060;SDS011;20336;-33.424;-70.638;2023-04-15T05:46:50;16.60;;;10.60;;
34060;SDS011;20336;-33.424;-70.638;2023-04-15T05:49:16;18.63;;;10.60;;
34060;SDS011;20336;-33.424;-70.638;2023-04-15T05:51:43;20.33;;;9.67;;
34060;SDS011;20336;-33.424;-70.638;2023-04-15T05:54:10;18.03;;;10.67;;
34060;SDS011;20336;-33.424;-70.638;2023-04-15T05:56:37;17.80;;;10.77;;
34060;SDS011;20336;-33.424;-70.638;2023-04-15T05:59:04;20.73;;;10.60;;
34060;SDS011;20336;-33.424;-70.638;2023-04-15T06:01:32;13.93;;;9.80;;
34060;SDS011;20336;-33.424;-70.638;2023-04-15T06:03:59;17.20;;;10.23;;
34060;SDS011;20336;-33.424;-70.638;2023-04-15T06:06:27;21.97;;;10.87;;
34060;SDS011;20336;-33.424;-70.638;2023-04-15T06:08:54;15.63;;;9.70;;
34060;SDS011;20336;-33.424;-70.638;2023-04-15T06:11:21;19.83;;;9.37;;
34060;SDS011;20336;-33.424;-70.638;2023-04-15T06:13:48;19.97;;;10.03;;
34060;SDS011;20336;-33.424;-70.638;2023-04-15T06:16:15;16.10;;;9.40;;
34060;SDS011;20336;-33.424;-70.638;2023-04-15T06:18:42;19.10;;;10.13;;
34060;SDS011;20336;-33.424;-70.638;2023-04-15T06:21:09;18.07;;;10.10;;
34060;SDS011;20336;-33.424;-70.638;2023-04-15T06:23:36;18.90;;;9.63;;
34060;SDS011;20336;-33.424;-70.638;2023-04-15T06:26:05;18.97;;;10.47;;
34060;SDS011;20336;-33.424;-70.638;2023-04-15T06:28:32;14.87;;;8.97;;
34060;SDS011;20336;-33.424;-70.638;2023-04-15T06:30:59;20.00;;;10.20;;
34060;SDS011;20336;-33.424;-70.638;2023-04-15T06:33:26;16.17;;;10.33;;
34060;SDS011;20336;-33.424;-70.638;2023-04-15T06:35:53;18.37;;;11.13;;
34060;SDS011;20336;-33.424;-70.638;2023-04-15T06:38:20;18.50;;;11.47;;
34060;SDS011;20336;-33.424;-70.638;2023-04-15T06:40:47;19.93;;;11.20;;
34060;SDS011;20336;-33.424;-70.638;2023-04-15T06:43:13;17.27;;;9.70;;
34060;SDS011;20336;-33.424;-70.638;2023-04-15T06:45:40;17.53;;;10.40;;
34060;SDS011;20336;-33.424;-70.638;2023-04-15T06:48:07;21.40;;;10.87;;
34060;SDS011;20336;-33.424;-70.638;2023-04-15T06:50:34;19.13;;;11.03;;
34060;SDS011;20336;-33.424;-70.638;2023-04-15T06:53:01;15.63;;;9.30;;
34060;SDS011;20336;-33.424;-70.638;2023-04-15T06:55:28;16.13;;;10.37;;
34060;SDS011;20336;-33.424;-70.638;2023-04-15T06:57:55;19.83;;;10.43;;
34060;SDS011;20336;-33.424;-70.638;2023-04-15T07:00:22;14.33;;;9.50;;
34060;SDS011;20336;-33.424;-70.638;2023-04-15T07:02:49;15.90;;;9.90;;
34060;SDS011;20336;-33.424;-70.638;2023-04-15T07:05:17;17.97;;;10.87;;
34060;SDS011;20336;-33.424;-70.638;2023-04-15T07:07:44;18.27;;;11.10;;
34060;SDS011;20336;-33.424;-70.638;2023-04-15T07:10:11;27.37;;;15.23;;
34060;SDS011;20336;-33.424;-70.638;2023-04-15T07:12:39;23.67;;;15.10;;
34060;SDS011;20336;-33.424;-70.638;2023-04-15T07:15:06;37.43;;;19.70;;
34060;SDS011;20336;-33.424;-70.638;2023-04-15T07:17:33;26.30;;;15.80;;
34060;SDS011;20336;-33.424;-70.638;2023-04-15T07:20:00;31.30;;;16.47;;
34060;SDS011;20336;-33.424;-70.638;2023-04-15T07:22:26;34.33;;;18.67;;
34060;SDS011;20336;-33.424;-70.638;2023-04-15T07:24:53;29.67;;;18.13;;
34060;SDS011;20336;-33.424;-70.638;2023-04-15T07:27:20;34.23;;;18.00;;
34060;SDS011;20336;-33.424;-70.638;2023-04-15T07:29:47;31.53;;;18.67;;
34060;SDS011;20336;-33.424;-70.638;2023-04-15T07:32:16;35.17;;;19.23;;
34060;SDS011;20336;-33.424;-70.638;2023-04-15T07:34:43;34.17;;;19.43;;
34060;SDS011;20336;-33.424;-70.638;2023-04-15T07:37:10;29.77;;;17.23;;
34060;SDS011;20336;-33.424;-70.638;2023-04-15T07:39:37;31.70;;;18.80;;
34060;SDS011;20336;-33.424;-70.638;2023-04-15T07:42:03;32.67;;;18.43;;
34060;SDS011;20336;-33.424;-70.638;2023-04-15T07:44:30;32.03;;;19.00;;
34060;SDS011;20336;-33.424;-70.638;2023-04-15T07:46:57;34.60;;;19.13;;
34060;SDS011;20336;-33.424;-70.638;2023-04-15T07:49:24;34.77;;;19.27;;
34060;SDS011;20336;-33.424;-70.638;2023-04-15T07:51:51;28.03;;;18.17;;
34060;SDS011;20336;-33.424;-70.638;2023-04-15T07:54:19;28.53;;;17.43;;
34060;SDS011;20336;-33.424;-70.638;2023-04-15T07:56:46;31.40;;;19.03;;
34060;SDS011;20336;-33.424;-70.638;2023-04-15T07:59:13;26.00;;;16.33;;
34060;SDS011;20336;-33.424;-70.638;2023-04-15T08:01:42;26.40;;;16.00;;
34060;SDS011;20336;-33.424;-70.638;2023-04-15T08:04:09;28.87;;;16.20;;
34060;SDS011;20336;-33.424;-70.638;2023-04-15T08:06:36;25.17;;;15.37;;
34060;SDS011;20336;-33.424;-70.638;2023-04-15T08:09:04;30.05;;;15.48;;
34060;SDS011;20336;-33.424;-70.638;2023-04-15T08:11:32;29.85;;;17.42;;
34060;SDS011;20336;-33.424;-70.638;2023-04-15T08:13:59;25.47;;;15.37;;
34060;SDS011;20336;-33.424;-70.638;2023-04-15T08:16:26;24.30;;;16.25;;
34060;SDS011;20336;-33.424;-70.638;2023-04-15T08:18:54;24.87;;;14.97;;
34060;SDS011;20336;-33.424;-70.638;2023-04-15T08:21:22;22.57;;;15.07;;
34060;SDS011;20336;-33.424;-70.638;2023-04-15T08:23:50;26.33;;;15.43;;
34060;SDS011;20336;-33.424;-70.638;2023-04-15T08:26:17;21.52;;;14.80;;
34060;SDS011;20336;-33.424;-70.638;2023-04-15T08:28:44;26.38;;;14.70;;
34060;SDS011;20336;-33.424;-70.638;2023-04-15T08:31:11;23.63;;;15.37;;
34060;SDS011;20336;-33.424;-70.638;2023-04-15T08:33:39;25.55;;;14.48;;
34060;SDS011;20336;-33.424;-70.638;2023-04-15T08:36:06;27.33;;;15.37;;
34060;SDS011;20336;-33.424;-70.638;2023-04-15T08:38:33;24.87;;;15.47;;
34060;SDS011;20336;-33.424;-70.638;2023-04-15T08:41:06;25.40;;;13.83;;
34060;SDS011;20336;-33.424;-70.638;2023-04-15T08:43:34;24.00;;;13.43;;
34060;SDS011;20336;-33.424;-70.638;2023-04-15T08:46:04;24.17;;;14.07;;
34060;SDS011;20336;-33.424;-70.638;2023-04-15T08:48:31;22.63;;;14.50;;
34060;SDS011;20336;-33.424;-70.638;2023-04-15T08:51:00;24.93;;;14.07;;
34060;SDS011;20336;-33.424;-70.638;2023-04-15T08:53:28;24.20;;;13.77;;
34060;SDS011;20336;-33.424;-70.638;2023-04-15T08:55:56;22.40;;;13.47;;
34060;SDS011;20336;-33.424;-70.638;2023-04-15T08:58:23;22.73;;;14.20;;
34060;SDS011;20336;-33.424;-70.638;2023-04-15T09:00:50;23.17;;;13.67;;
34060;SDS011;20336;-33.424;-70.638;2023-04-15T09:03:17;22.97;;;14.10;;
34060;SDS011;20336;-33.424;-70.638;2023-04-15T09:05:44;21.80;;;13.47;;
34060;SDS011;20336;-33.424;-70.638;2023-04-15T09:08:11;19.35;;;12.52;;
34060;SDS011;20336;-33.424;-70.638;2023-04-15T09:10:38;24.70;;;14.20;;
34060;SDS011;20336;-33.424;-70.638;2023-04-15T09:13:05;22.10;;;13.40;;
34060;SDS011;20336;-33.424;-70.638;2023-04-15T09:15:32;25.65;;;13.45;;
34060;SDS011;20336;-33.424;-70.638;2023-04-15T09:17:59;21.93;;;13.57;;
34060;SDS011;20336;-33.424;-70.638;2023-04-15T09:20:25;25.50;;;14.30;;
34060;SDS011;20336;-33.424;-70.638;2023-04-15T09:22:52;20.53;;;13.83;;
34060;SDS011;20336;-33.424;-70.638;2023-04-15T09:27:51;25.73;;;13.98;;
34060;SDS011;20336;-33.424;-70.638;2023-04-15T09:30:18;21.83;;;13.93;;
34060;SDS011;20336;-33.424;-70.638;2023-04-15T09:32:51;20.43;;;13.23;;
34060;SDS011;20336;-33.424;-70.638;2023-04-15T09:35:19;22.00;;;12.97;;
34060;SDS011;20336;-33.424;-70.638;2023-04-15T09:37:47;23.98;;;13.25;;
34060;SDS011;20336;-33.424;-70.638;2023-04-15T09:40:14;22.75;;;13.55;;
34060;SDS011;20336;-33.424;-70.638;2023-04-15T09:42:55;24.37;;;14.93;;
34060;SDS011;20336;-33.424;-70.638;2023-04-15T09:45:22;25.40;;;13.40;;
34060;SDS011;20336;-33.424;-70.638;2023-04-15T09:47:50;20.57;;;13.30;;
34060;SDS011;20336;-33.424;-70.638;2023-04-15T09:50:17;21.27;;;12.93;;
34060;SDS011;20336;-33.424;-70.638;2023-04-15T09:52:44;19.85;;;13.45;;
34060;SDS011;20336;-33.424;-70.638;2023-04-15T09:55:12;20.00;;;12.13;;
34060;SDS011;20336;-33.424;-70.638;2023-04-15T09:57:39;21.50;;;13.00;;
34060;SDS011;20336;-33.424;-70.638;2023-04-15T10:00:08;21.00;;;13.70;;
34060;SDS011;20336;-33.424;-70.638;2023-04-15T10:02:36;28.50;;;14.17;;
34060;SDS011;20336;-33.424;-70.638;2023-04-15T10:05:03;22.37;;;13.47;;
34060;SDS011;20336;-33.424;-70.638;2023-04-15T10:07:30;26.92;;;14.10;;
34060;SDS011;20336;-33.424;-70.638;2023-04-15T10:09:58;23.20;;;14.33;;
34060;SDS011;20336;-33.424;-70.638;2023-04-15T10:12:26;23.45;;;13.68;;
34060;SDS011;20336;-33.424;-70.638;2023-04-15T10:15:02;22.98;;;14.13;;
34060;SDS011;20336;-33.424;-70.638;2023-04-15T10:17:29;25.20;;;14.48;;
34060;SDS011;20336;-33.424;-70.638;2023-04-15T10:20:02;24.10;;;15.48;;
34060;SDS011;20336;-33.424;-70.638;2023-04-15T10:22:29;24.02;;;16.00;;
34060;SDS011;20336;-33.424;-70.638;2023-04-15T10:24:57;32.67;;;18.90;;
34060;SDS011;20336;-33.424;-70.638;2023-04-15T10:27:25;32.73;;;21.03;;
34060;SDS011;20336;-33.424;-70.638;2023-04-15T10:29:53;39.03;;;20.77;;
34060;SDS011;20336;-33.424;-70.638;2023-04-15T10:32:20;44.65;;;21.50;;
34060;SDS011;20336;-33.424;-70.638;2023-04-15T10:34:48;38.27;;;20.33;;
34060;SDS011;20336;-33.424;-70.638;2023-04-15T10:37:24;34.35;;;19.45;;
34060;SDS011;20336;-33.424;-70.638;2023-04-15T10:39:58;42.90;;;20.75;;
34060;SDS011;20336;-33.424;-70.638;2023-04-15T10:42:26;50.55;;;21.05;;
34060;SDS011;20336;-33.424;-70.638;2023-04-15T10:44:59;49.33;;;21.23;;
34060;SDS011;20336;-33.424;-70.638;2023-04-15T10:47:26;46.53;;;21.93;;
34060;SDS011;20336;-33.424;-70.638;2023-04-15T10:49:58;42.55;;;21.25;;
34060;SDS011;20336;-33.424;-70.638;2023-04-15T10:52:25;35.87;;;19.60;;
34060;SDS011;20336;-33.424;-70.638;2023-04-15T10:57:38;36.47;;;19.47;;
34060;SDS011;20336;-33.424;-70.638;2023-04-15T11:00:10;35.30;;;19.53;;
34060;SDS011;20336;-33.424;-70.638;2023-04-15T11:02:56;30.65;;;18.67;;
34060;SDS011;20336;-33.424;-70.638;2023-04-15T11:08:05;33.70;;;20.33;;
34060;SDS011;20336;-33.424;-70.638;2023-04-15T11:17:57;33.22;;;19.50;;
34060;SDS011;20336;-33.424;-70.638;2023-04-15T11:20:24;30.40;;;17.87;;
34060;SDS011;20336;-33.424;-70.638;2023-04-15T11:22:52;26.33;;;16.47;;
34060;SDS011;20336;-33.424;-70.638;2023-04-15T11:25:26;27.00;;;17.27;;
34060;SDS011;20336;-33.424;-70.638;2023-04-15T11:27:54;29.77;;;16.77;;
34060;SDS011;20336;-33.424;-70.638;2023-04-15T11:30:22;28.10;;;16.43;;
34060;SDS011;20336;-33.424;-70.638;2023-04-15T11:32:49;21.45;;;15.82;;
34060;SDS011;20336;-33.424;-70.638;2023-04-15T11:35:16;29.37;;;15.47;;
34060;SDS011;20336;-33.424;-70.638;2023-04-15T11:37:44;24.47;;;15.90;;
34060;SDS011;20336;-33.424;-70.638;2023-04-15T11:40:11;27.53;;;15.67;;
34060;SDS011;20336;-33.424;-70.638;2023-04-15T11:42:39;27.03;;;15.80;;
34060;SDS011;20336;-33.424;-70.638;2023-04-15T11:47:34;27.47;;;15.73;;
34060;SDS011;20336;-33.424;-70.638;2023-04-15T11:50:14;26.47;;;16.03;;
34060;SDS011;20336;-33.424;-70.638;2023-04-15T11:53:01;28.60;;;15.70;;
34060;SDS011;20336;-33.424;-70.638;2023-04-15T11:55:29;26.53;;;16.03;;
34060;SDS011;20336;-33.424;-70.638;2023-04-15T12:00:32;29.08;;;16.48;;
34060;SDS011;20336;-33.424;-70.638;2023-04-15T12:08:49;28.88;;;17.77;;
34060;SDS011;20336;-33.424;-70.638;2023-04-15T12:11:16;31.83;;;18.55;;
34060;SDS011;20336;-33.424;-70.638;2023-04-15T12:13:46;30.42;;;17.27;;
34060;SDS011;20336;-33.424;-70.638;2023-04-15T12:16:20;34.03;;;18.50;;
34060;SDS011;20336;-33.424;-70.638;2023-04-15T12:18:49;28.40;;;18.02;;
34060;SDS011;20336;-33.424;-70.638;2023-04-15T12:21:20;32.58;;;18.48;;
34060;SDS011;20336;-33.424;-70.638;2023-04-15T12:23:47;37.20;;;19.05;;
34060;SDS011;20336;-33.424;-70.638;2023-04-15T12:26:15;33.00;;;19.20;;
34060;SDS011;20336;-33.424;-70.638;2023-04-15T12:28:42;30.52;;;18.95;;
34060;SDS011;20336;-33.424;-70.638;2023-04-15T12:31:10;32.42;;;18.83;;
34060;SDS011;20336;-33.424;-70.638;2023-04-15T12:33:37;34.60;;;19.05;;
34060;SDS011;20336;-33.424;-70.638;2023-04-15T12:36:05;32.80;;;19.77;;
34060;SDS011;20336;-33.424;-70.638;2023-04-15T12:38:32;32.42;;;19.13;;
34060;SDS011;20336;-33.424;-70.638;2023-04-15T12:40:59;36.33;;;19.48;;
34060;SDS011;20336;-33.424;-70.638;2023-04-15T12:43:26;33.60;;;18.98;;
34060;SDS011;20336;-33.424;-70.638;2023-04-15T12:45:53;31.23;;;19.23;;
34060;SDS011;20336;-33.424;-70.638;2023-04-15T12:48:20;33.47;;;20.10;;
34060;SDS011;20336;-33.424;-70.638;2023-04-15T12:50:46;37.35;;;20.58;;
34060;SDS011;20336;-33.424;-70.638;2023-04-15T12:53:13;32.50;;;19.42;;
34060;SDS011;20336;-33.424;-70.638;2023-04-15T12:55:40;39.17;;;21.63;;
34060;SDS011;20336;-33.424;-70.638;2023-04-15T12:58:07;42.13;;;21.40;;
34060;SDS011;20336;-33.424;-70.638;2023-04-15T13:00:36;34.03;;;19.83;;
34060;SDS011;20336;-33.424;-70.638;2023-04-15T13:03:03;35.30;;;19.15;;
34060;SDS011;20336;-33.424;-70.638;2023-04-15T13:05:30;38.55;;;20.33;;
34060;SDS011;20336;-33.424;-70.638;2023-04-15T13:07:57;31.65;;;18.92;;
34060;SDS011;20336;-33.424;-70.638;2023-04-15T13:10:24;32.38;;;18.55;;
34060;SDS011;20336;-33.424;-70.638;2023-04-15T13:12:50;36.38;;;19.75;;
34060;SDS011;20336;-33.424;-70.638;2023-04-15T13:15:18;32.47;;;19.30;;
34060;SDS011;20336;-33.424;-70.638;2023-04-15T13:17:47;35.20;;;19.15;;
34060;SDS011;20336;-33.424;-70.638;2023-04-15T13:20:14;33.72;;;18.48;;
34060;SDS011;20336;-33.424;-70.638;2023-04-15T13:22:41;34.03;;;20.00;;
34060;SDS011;20336;-33.424;-70.638;2023-04-15T13:25:08;33.55;;;19.10;;
34060;SDS011;20336;-33.424;-70.638;2023-04-15T13:27:36;34.00;;;18.38;;
34060;SDS011;20336;-33.424;-70.638;2023-04-15T13:30:03;32.55;;;18.92;;
34060;SDS011;20336;-33.424;-70.638;2023-04-15T13:32:30;30.80;;;18.73;;
34060;SDS011;20336;-33.424;-70.638;2023-04-15T13:34:57;36.17;;;20.33;;
34060;SDS011;20336;-33.424;-70.638;2023-04-15T13:37:27;41.03;;;22.48;;
34060;SDS011;20336;-33.424;-70.638;2023-04-15T13:39:54;37.28;;;20.85;;
34060;SDS011;20336;-33.424;-70.638;2023-04-15T13:42:22;32.95;;;21.80;;
34060;SDS011;20336;-33.424;-70.638;2023-04-15T13:44:49;37.72;;;21.23;;
34060;SDS011;20336;-33.424;-70.638;2023-04-15T13:47:16;32.25;;;22.25;;
34060;SDS011;20336;-33.424;-70.638;2023-04-15T13:49:43;40.42;;;21.67;;
34060;SDS011;20336;-33.424;-70.638;2023-04-15T13:52:10;36.80;;;21.60;;
34060;SDS011;20336;-33.424;-70.638;2023-04-15T13:54:37;41.38;;;23.27;;
34060;SDS011;20336;-33.424;-70.638;2023-04-15T13:57:04;45.75;;;23.10;;
34060;SDS011;20336;-33.424;-70.638;2023-04-15T13:59:32;37.85;;;22.05;;
34060;SDS011;20336;-33.424;-70.638;2023-04-15T14:01:59;34.53;;;22.40;;
34060;SDS011;20336;-33.424;-70.638;2023-04-15T14:04:26;43.45;;;24.48;;
34060;SDS011;20336;-33.424;-70.638;2023-04-15T14:06:53;37.67;;;22.92;;
34060;SDS011;20336;-33.424;-70.638;2023-04-15T14:09:20;41.08;;;24.40;;
34060;SDS011;20336;-33.424;-70.638;2023-04-15T14:11:48;40.70;;;25.02;;
34060;SDS011;20336;-33.424;-70.638;2023-04-15T14:14:15;43.20;;;24.75;;
34060;SDS011;20336;-33.424;-70.638;2023-04-15T14:16:42;38.72;;;24.10;;